createdAt,value
2022-12-08T00:01:52.245Z,99519.75
2022-12-08T00:04:24.258Z,99523.64
2022-12-08T00:07:13.679Z,99527.25
2022-12-08T00:09:45.803Z,99530.52
2022-12-08T00:12:18.200Z,99533.46
2022-12-08T00:14:50.445Z,99542.60
2022-12-08T00:17:22.554Z,99544.68
2022-12-08T00:19:54.396Z,99548.52
2022-12-08T00:22:26.162Z,99547.27
2022-12-08T00:24:58.080Z,99556.23
2022-12-08T00:27:30.081Z,99560.73
2022-12-08T00:30:02.227Z,99563.82
2022-12-08T00:32:34.206Z,99569.15
2022-12-08T00:35:06.647Z,99569.51
2022-12-08T00:37:38.526Z,99572.28
2022-12-08T00:40:11.622Z,99574.96
2022-12-08T00:42:43.805Z,99578.31
2022-12-08T00:45:15.859Z,99582.16
2022-12-08T00:47:48.236Z,99586.74
2022-12-08T00:50:20.317Z,99589.43
2022-12-08T00:52:52.252Z,99594.13
2022-12-08T00:55:24.445Z,99595.45
2022-12-08T00:57:56.396Z,99598.66
2022-12-08T01:00:28.039Z,99598.48
2022-12-08T01:03:00.321Z,99601.20
2022-12-08T01:05:32.234Z,99601.15
2022-12-08T01:08:06.720Z,99598.34
2022-12-08T01:10:38.527Z,99605.98
2022-12-08T01:13:10.207Z,99610.42
2022-12-08T01:15:42.108Z,99611.55
2022-12-08T01:18:14.081Z,99613.84
2022-12-08T01:20:46.042Z,99613.40
2022-12-08T01:23:17.782Z,99614.02
2022-12-08T01:25:49.466Z,99619.64
2022-12-08T01:28:21.598Z,99616.55
2022-12-08T01:30:53.391Z,99618.55
2022-12-08T01:33:25.541Z,99611.08
2022-12-08T01:35:57.438Z,99608.92
2022-12-08T01:38:29.626Z,99610.42
2022-12-08T01:41:01.360Z,99613.63
2022-12-08T01:43:52.945Z,99614.21
2022-12-08T01:46:24.789Z,99617.69
2022-12-08T01:48:59.124Z,99616.86
2022-12-08T01:51:32.520Z,99621.98
2022-12-08T01:54:05.116Z,99627.30
2022-12-08T01:56:38.336Z,99627.86
2022-12-08T01:59:11.350Z,99632.10
2022-12-08T02:01:43.156Z,99627.95
2022-12-08T02:04:15.194Z,99626.38
2022-12-08T02:06:48.574Z,99621.64
2022-12-08T02:09:21.042Z,99619.54
2022-12-08T02:11:53.201Z,99617.64
2022-12-08T02:14:25.992Z,99619.71
2022-12-08T02:17:02.918Z,99623.59
2022-12-08T02:19:48.397Z,99624.45
2022-12-08T02:22:25.276Z,99620.58
2022-12-08T02:25:01.311Z,99621.92
2022-12-08T02:27:49.551Z,99619.82
2022-12-08T02:30:26.603Z,99620.68
2022-12-08T02:33:24.180Z,99618.98
2022-12-08T02:35:59.188Z,99616.84
2022-12-08T02:38:37.525Z,99618.11
2022-12-08T02:41:13.950Z,99622.33
2022-12-08T02:43:46.434Z,99629.02
2022-12-08T02:46:20.446Z,99628.86
2022-12-08T02:48:54.233Z,99632.19
2022-12-08T02:51:26.518Z,99631.52
2022-12-08T02:53:58.778Z,99634.70
2022-12-08T02:56:47.675Z,99637.14
2022-12-08T02:59:32.711Z,99637.17
2022-12-08T03:02:12.433Z,99642.52
2022-12-08T03:04:47.710Z,99647.02
2022-12-08T03:07:23.201Z,99647.67
2022-12-08T03:09:57.049Z,99654.77
2022-12-08T03:12:33.338Z,99654.71
2022-12-08T03:15:09.928Z,99660.55
2022-12-08T03:17:45.205Z,99661.29
2022-12-08T03:20:20.655Z,99664.93
2022-12-08T03:22:54.263Z,99666.16
2022-12-08T03:25:26.610Z,99668.47
2022-12-08T03:27:58.650Z,99676.76
2022-12-08T03:30:32.408Z,99678.04
2022-12-08T03:33:06.625Z,99685.05
2022-12-08T03:35:41.412Z,99681.67
2022-12-08T03:38:15.100Z,99682.19
2022-12-08T03:41:07.700Z,99678.72
2022-12-08T03:43:39.747Z,99675.48
2022-12-08T03:46:11.618Z,99670.67
2022-12-08T03:48:43.783Z,99673.78
2022-12-08T03:51:15.801Z,99676.37
2022-12-08T03:53:48.014Z,99679.04
2022-12-08T03:56:23.679Z,99682.54
2022-12-08T03:58:56.120Z,99686.27
2022-12-08T04:01:28.856Z,99686.80
2022-12-08T04:04:00.827Z,99686.90
2022-12-08T04:06:33.012Z,99688.81
2022-12-08T04:09:04.886Z,99691.56
2022-12-08T04:11:36.702Z,99692.06
2022-12-08T04:14:08.689Z,99695.23
2022-12-08T04:16:40.422Z,99697.94
2022-12-08T04:19:12.218Z,99704.23
2022-12-08T04:21:44.682Z,99708.33
2022-12-08T04:24:16.758Z,99703.73
2022-12-08T04:26:50.134Z,99706.30
2022-12-08T04:29:22.065Z,99707.39
2022-12-08T04:31:53.983Z,99705.69
2022-12-08T04:34:26.123Z,99708.86
2022-12-08T04:36:57.995Z,99709.64
2022-12-08T04:39:29.820Z,99712.96
2022-12-08T04:42:02.004Z,99718.67
2022-12-08T04:44:33.969Z,99717.19
2022-12-08T04:47:06.374Z,99715.30
2022-12-08T04:49:38.287Z,99713.60
2022-12-08T04:52:10.342Z,99711.36
2022-12-08T04:54:42.650Z,99716.04
2022-12-08T04:57:14.409Z,99716.55
2022-12-08T04:59:46.560Z,99721.36
2022-12-08T05:02:18.820Z,99720.52
2022-12-08T05:04:50.838Z,99724.14
2022-12-08T05:07:22.636Z,99727.80
2022-12-08T05:09:54.805Z,99734.05
2022-12-08T05:12:26.688Z,99738.63
2022-12-08T05:14:58.338Z,99745.05
2022-12-08T05:17:30.080Z,99746.06
2022-12-08T05:20:02.011Z,99739.83
2022-12-08T05:22:34.298Z,99742.65
2022-12-08T05:25:06.563Z,99743.92
2022-12-08T05:27:38.694Z,99743.09
2022-12-08T05:30:11.448Z,99746.00
2022-12-08T05:32:43.385Z,99745.98
2022-12-08T05:35:15.015Z,99744.05
2022-12-08T05:37:46.709Z,99742.04
2022-12-08T05:40:19.318Z,99741.08
2022-12-08T05:42:51.105Z,99738.64
2022-12-08T05:45:22.797Z,99736.05
2022-12-08T05:47:56.732Z,99734.89
2022-12-08T05:50:28.249Z,99737.52
2022-12-08T05:53:00.254Z,99744.85
2022-12-08T05:55:32.335Z,99750.33
2022-12-08T05:58:07.784Z,99754.87
2022-12-08T06:00:40.218Z,99760.12
2022-12-08T06:03:12.877Z,99768.79
2022-12-08T06:05:45.094Z,99772.42
2022-12-08T06:08:16.851Z,99771.49
2022-12-08T06:10:48.514Z,99772.73
2022-12-08T06:13:20.058Z,99780.52
2022-12-08T06:15:51.840Z,99785.98
2022-12-08T06:18:28.333Z,99789.10
2022-12-08T06:21:07.224Z,99793.34
2022-12-08T06:23:39.009Z,99799.23
2022-12-08T06:26:12.059Z,99804.87
2022-12-08T06:28:44.275Z,99803.81
2022-12-08T06:31:18.311Z,99805.42
2022-12-08T06:33:50.721Z,99801.99
2022-12-08T06:36:24.339Z,99797.09
2022-12-08T06:38:56.327Z,99795.52
2022-12-08T06:41:28.404Z,99796.09
2022-12-08T06:44:00.486Z,99798.14
2022-12-08T06:46:32.157Z,99800.23
2022-12-08T06:49:03.619Z,99798.08
2022-12-08T06:51:35.850Z,99802.72
2022-12-08T06:54:08.129Z,99812.66
2022-12-08T06:56:39.779Z,99812.66
2022-12-08T06:59:12.188Z,99812.00
2022-12-08T07:01:44.040Z,99813.29
2022-12-08T07:04:16.077Z,99816.60
2022-12-08T07:06:48.018Z,99821.17
2022-12-08T07:09:19.766Z,99826.38
2022-12-08T07:11:51.758Z,99823.67
2022-12-08T07:14:25.229Z,99824.17
2022-12-08T07:16:56.778Z,99824.27
2022-12-08T07:19:28.265Z,99827.28
2022-12-08T07:21:59.770Z,99830.83
2022-12-08T07:24:31.307Z,99833.39
2022-12-08T07:27:03.429Z,99832.13
2022-12-08T07:29:35.741Z,99830.98
2022-12-08T07:32:09.021Z,99833.55
2022-12-08T07:34:40.558Z,99832.72
2022-12-08T07:37:12.968Z,99830.38
2022-12-08T07:39:44.937Z,99833.30
2022-12-08T07:42:17.050Z,99832.95
2022-12-08T07:44:51.620Z,99832.36
2022-12-08T07:47:23.706Z,99837.92
2022-12-08T07:49:56.060Z,99843.65
2022-12-08T07:52:28.061Z,99844.70
2022-12-08T07:55:00.393Z,99847.55
2022-12-08T07:57:32.325Z,99848.45
2022-12-08T08:00:04.651Z,99851.70
2022-12-08T08:02:43.689Z,99852.57
2022-12-08T08:05:15.967Z,99853.82
2022-12-08T08:07:48.670Z,99855.73
2022-12-08T08:10:20.775Z,99853.70
2022-12-08T08:12:52.476Z,99851.48
2022-12-08T08:15:24.645Z,99851.00
2022-12-08T08:17:56.373Z,99847.09
2022-12-08T08:20:28.258Z,99846.75
2022-12-08T08:22:59.998Z,99853.55
2022-12-08T08:25:32.663Z,99855.09
2022-12-08T08:28:04.497Z,99855.95
2022-12-08T08:30:36.421Z,99857.77
2022-12-08T08:33:08.253Z,99861.10
2022-12-08T08:35:40.313Z,99863.33
2022-12-08T08:38:11.919Z,99863.42
2022-12-08T08:40:43.777Z,99866.20
2022-12-08T08:43:34.316Z,99867.54
2022-12-08T08:46:10.556Z,99866.34
2022-12-08T08:48:42.807Z,99865.54
2022-12-08T08:51:15.737Z,99862.96
2022-12-08T08:53:47.939Z,99862.42
2022-12-08T08:56:20.651Z,99859.52
2022-12-08T08:58:53.039Z,99864.70
2022-12-08T09:01:26.060Z,99867.45
2022-12-08T09:03:58.333Z,99864.54
2022-12-08T09:06:30.467Z,99860.81
2022-12-08T09:09:02.506Z,99863.19
2022-12-08T09:11:35.117Z,99864.27
2022-12-08T09:14:06.944Z,99868.38
2022-12-08T09:16:42.236Z,99863.67
2022-12-08T09:19:14.732Z,99862.95
2022-12-08T09:21:46.474Z,99863.20
2022-12-08T09:24:18.115Z,99865.91
2022-12-08T09:26:49.866Z,99865.67
2022-12-08T09:29:22.238Z,99864.39
2022-12-08T09:31:55.011Z,99860.20
2022-12-08T09:34:26.872Z,99855.73
2022-12-08T09:36:59.047Z,99850.81
2022-12-08T09:39:31.602Z,99849.48
2022-12-08T09:42:04.528Z,99851.33
2022-12-08T09:44:46.138Z,99849.48
2022-12-08T09:47:20.799Z,99848.63
2022-12-08T09:49:54.728Z,99846.15
2022-12-08T09:52:28.183Z,99837.79
2022-12-08T09:55:02.157Z,99837.05
2022-12-08T09:57:33.816Z,99837.14
2022-12-08T10:00:07.680Z,99834.02
2022-12-08T10:02:39.696Z,99831.44
2022-12-08T10:05:14.933Z,99832.38
2022-12-08T10:07:48.881Z,99821.33
2022-12-08T10:10:27.220Z,99826.33
2022-12-08T10:13:01.251Z,99830.60
2022-12-08T10:15:42.038Z,99823.45
2022-12-08T10:18:16.391Z,99830.68
2022-12-08T10:20:49.181Z,99834.63
2022-12-08T10:23:26.179Z,99825.14
2022-12-08T10:26:02.152Z,99821.16
2022-12-08T10:28:40.002Z,99819.51
2022-12-08T10:31:20.918Z,99812.92
2022-12-08T10:33:55.393Z,99810.76
2022-12-08T10:36:29.507Z,99809.45
2022-12-08T10:39:01.062Z,99807.34
2022-12-08T10:41:32.912Z,99812.52
2022-12-08T10:44:04.550Z,99812.92
2022-12-08T10:46:40.095Z,99810.61
2022-12-08T10:49:14.783Z,99797.30
2022-12-08T10:51:46.659Z,99798.01
2022-12-08T10:54:28.922Z,99792.59
2022-12-08T10:57:01.024Z,99793.08
2022-12-08T10:59:34.915Z,99795.75
2022-12-08T11:02:18.048Z,99793.06
2022-12-08T11:04:59.510Z,99788.23
2022-12-08T11:07:31.457Z,99783.69
2022-12-08T11:10:04.015Z,99781.41
2022-12-08T11:12:37.078Z,99777.77
2022-12-08T11:15:17.132Z,99779.41
2022-12-08T11:18:01.760Z,99774.50
2022-12-08T11:20:39.582Z,99767.80
2022-12-08T11:23:22.623Z,99770.98
2022-12-08T11:25:58.002Z,99767.11
2022-12-08T11:28:30.282Z,99768.88
2022-12-08T11:31:06.861Z,99768.69
2022-12-08T11:33:38.874Z,99764.52
2022-12-08T11:36:12.399Z,99765.64
2022-12-08T11:38:45.868Z,99763.31
2022-12-08T11:41:19.032Z,99764.55
2022-12-08T11:43:54.661Z,99762.66
2022-12-08T11:46:27.617Z,99761.40
2022-12-08T11:49:06.231Z,99759.55
2022-12-08T11:51:41.381Z,99756.73
2022-12-08T11:54:20.517Z,99759.92
2022-12-08T11:56:55.946Z,99759.16
2022-12-08T11:59:30.479Z,99760.48
2022-12-08T12:02:03.589Z,99756.65
2022-12-08T12:04:39.552Z,99755.95
2022-12-08T12:07:28.455Z,99762.36
2022-12-08T12:10:09.337Z,99760.38
2022-12-08T12:12:50.177Z,99758.52
2022-12-08T12:15:36.418Z,99754.67
2022-12-08T12:18:16.790Z,99756.34
2022-12-08T12:20:54.049Z,99750.00
2022-12-08T12:23:31.170Z,99746.23
2022-12-08T12:26:04.281Z,99750.70
2022-12-08T12:28:42.570Z,99748.44
2022-12-08T12:31:17.715Z,99741.91
2022-12-08T12:33:50.462Z,99738.64
2022-12-08T12:36:22.588Z,99732.45
2022-12-08T12:39:06.707Z,99727.61
2022-12-08T12:41:44.796Z,99734.27
2022-12-08T12:44:27.347Z,99731.92
2022-12-08T12:47:00.473Z,99731.13
2022-12-08T12:49:49.344Z,99730.05
2022-12-08T12:52:38.134Z,99729.66
2022-12-08T12:55:23.190Z,99724.86
2022-12-08T12:57:55.716Z,99723.08
2022-12-08T13:00:29.222Z,99716.80
2022-12-08T13:03:01.607Z,99717.88
2022-12-08T13:05:49.953Z,99715.35
2022-12-08T13:08:24.519Z,99712.07
2022-12-08T13:11:02.530Z,99710.43
2022-12-08T13:13:34.990Z,99714.89
2022-12-08T13:16:19.240Z,99717.38
2022-12-08T13:18:52.920Z,99717.66
2022-12-08T13:21:25.630Z,99712.64
2022-12-08T13:24:10.990Z,99714.02
2022-12-08T13:26:48.267Z,99712.95
2022-12-08T13:29:21.394Z,99711.45
2022-12-08T13:31:56.762Z,99712.80
2022-12-08T13:34:33.050Z,99713.23
2022-12-08T13:37:08.574Z,99712.95
2022-12-08T13:39:43.899Z,99708.89
2022-12-08T13:42:22.935Z,99707.08
2022-12-08T13:52:20.120Z,99704.36
2022-12-08T13:54:45.795Z,99701.55
2022-12-08T13:59:30.198Z,99689.00
2022-12-08T14:02:05.246Z,99686.45
2022-12-08T14:05:09.153Z,99685.92
2022-12-08T14:07:29.271Z,99687.95
2022-12-08T14:10:03.099Z,99689.25
2022-12-08T14:12:35.379Z,99688.42
2022-12-08T14:15:08.401Z,99689.96
2022-12-08T14:17:41.181Z,99692.73
2022-12-08T14:20:21.683Z,99690.14
2022-12-08T14:22:53.973Z,99685.69
2022-12-08T14:25:28.480Z,99686.15
2022-12-08T14:28:02.322Z,99690.47
2022-12-08T14:30:34.837Z,99698.39
2022-12-08T14:33:07.129Z,99696.25
2022-12-08T14:35:40.237Z,99697.20
2022-12-08T14:38:14.738Z,99700.67
2022-12-08T14:40:47.148Z,99700.89
2022-12-08T14:43:20.824Z,99700.66
2022-12-08T14:45:54.119Z,99705.33
2022-12-08T14:48:27.290Z,99702.02
2022-12-08T14:51:03.911Z,99700.52
2022-12-08T14:53:41.180Z,99695.20
2022-12-08T14:56:22.539Z,99693.98
2022-12-08T14:59:04.672Z,99699.42
2022-12-08T15:01:37.239Z,99699.55
2022-12-08T15:04:11.084Z,99698.15
2022-12-08T15:06:52.673Z,99696.73
2022-12-08T15:09:32.045Z,99694.59
2022-12-08T15:12:04.605Z,99693.35
2022-12-08T15:14:37.616Z,99693.45
2022-12-08T15:17:22.827Z,99695.88
2022-12-08T15:19:59.508Z,99696.55
2022-12-08T15:22:32.040Z,99692.04
2022-12-08T15:25:03.841Z,99689.68
2022-12-08T15:27:46.870Z,99688.34
2022-12-08T15:30:22.083Z,99689.11
2022-12-08T15:32:54.591Z,99690.23
2022-12-08T15:35:26.554Z,99691.38
2022-12-08T15:37:58.418Z,99685.05
2022-12-08T15:40:30.505Z,99688.82
2022-12-08T15:43:02.494Z,99685.46
2022-12-08T15:45:34.559Z,99687.59
2022-12-08T15:48:06.882Z,99686.11
2022-12-08T15:50:38.805Z,99692.14
2022-12-08T15:53:11.690Z,99693.16
2022-12-08T15:56:03.469Z,99692.67
2022-12-08T15:58:55.217Z,99696.52
2022-12-08T16:01:29.249Z,99701.23
2022-12-08T16:09:46.478Z,99697.09
2022-12-08T16:13:26.898Z,99698.27
2022-12-08T16:18:25.570Z,99696.52
2022-12-08T16:21:39.980Z,99696.11
2022-12-08T16:23:50.233Z,99696.19
2022-12-08T16:29:19.505Z,99692.51
2022-12-08T16:31:52.301Z,99690.60
2022-12-08T16:34:24.800Z,99687.84
2022-12-08T16:36:57.151Z,99690.64
2022-12-08T16:39:29.427Z,99690.51
2022-12-08T16:42:19.022Z,99683.38
2022-12-08T16:44:50.914Z,99687.86
2022-12-08T16:47:22.753Z,99687.40
2022-12-08T16:49:54.697Z,99688.04
2022-12-08T16:52:26.531Z,99689.96
2022-12-08T16:54:59.445Z,99692.23
2022-12-08T16:57:31.558Z,99694.73
2022-12-08T17:00:05.076Z,99694.03
2022-12-08T17:02:38.515Z,99691.91
2022-12-08T17:05:14.003Z,99690.20
2022-12-08T17:07:47.119Z,99688.41
2022-12-08T17:10:20.079Z,99689.31
2022-12-08T17:12:52.257Z,99690.66
2022-12-08T17:15:25.376Z,99683.95
2022-12-08T17:17:57.636Z,99684.20
2022-12-08T17:20:30.621Z,99684.41
2022-12-08T17:23:02.793Z,99681.40
2022-12-08T17:25:35.523Z,99681.20
2022-12-08T17:28:07.953Z,99680.46
2022-12-08T17:30:40.899Z,99681.34
2022-12-08T17:33:13.199Z,99682.38
2022-12-08T17:35:50.420Z,99682.14
2022-12-08T17:38:25.527Z,99680.96
2022-12-08T17:40:58.768Z,99680.83
2022-12-08T17:43:38.084Z,99687.68
2022-12-08T17:46:11.447Z,99684.50
2022-12-08T17:48:44.227Z,99686.73
2022-12-08T17:51:17.570Z,99690.14
2022-12-08T17:53:50.783Z,99690.02
2022-12-08T17:56:24.633Z,99693.29
2022-12-08T17:58:57.914Z,99691.50
2022-12-08T18:01:30.625Z,99692.85
2022-12-08T18:04:04.995Z,99692.59
2022-12-08T18:06:39.522Z,99696.63
2022-12-08T18:09:13.041Z,99697.73
2022-12-08T18:11:46.630Z,99696.44
2022-12-08T18:14:19.293Z,99697.35
2022-12-08T18:16:52.467Z,99699.70
2022-12-08T18:19:25.709Z,99703.89
2022-12-08T18:21:58.841Z,99702.67
2022-12-08T18:24:30.935Z,99703.84
2022-12-08T18:27:03.933Z,99699.70
2022-12-08T18:29:37.667Z,99696.55
2022-12-08T18:32:10.998Z,99692.11
2022-12-08T18:34:45.924Z,99691.88
2022-12-08T18:37:19.043Z,99688.23
2022-12-08T18:39:57.627Z,99682.83
2022-12-08T18:42:34.595Z,99682.02
2022-12-08T18:45:22.674Z,99677.42
2022-12-08T18:47:56.956Z,99674.51
2022-12-08T18:50:31.457Z,99674.73
2022-12-08T18:53:04.126Z,99677.65
2022-12-08T18:55:40.200Z,99685.20
2022-12-08T18:58:16.413Z,99683.30
2022-12-08T19:00:50.193Z,99682.48
2022-12-08T19:03:23.218Z,99683.63
2022-12-08T19:06:09.632Z,99683.01
2022-12-08T19:08:44.588Z,99680.86
2022-12-08T19:11:25.295Z,99684.23
2022-12-08T19:14:03.579Z,99686.87
2022-12-08T19:16:37.260Z,99684.34
2022-12-08T19:19:09.894Z,99686.84
2022-12-08T19:21:46.669Z,99681.73
2022-12-08T19:24:24.846Z,99683.95
2022-12-08T19:27:01.815Z,99682.95
2022-12-08T19:29:34.946Z,99684.16
2022-12-08T19:32:12.800Z,99688.01
2022-12-08T19:34:47.392Z,99687.02
2022-12-08T19:37:25.113Z,99687.60
2022-12-08T19:40:19.755Z,99690.53
2022-12-08T19:43:17.832Z,99690.70
2022-12-08T19:45:51.071Z,99690.33
2022-12-08T19:48:25.695Z,99690.86
2022-12-08T19:51:01.788Z,99686.65
2022-12-08T19:53:35.832Z,99682.81
2022-12-08T19:56:10.243Z,99680.30
2022-12-08T19:58:48.642Z,99682.61
2022-12-08T20:01:22.037Z,99681.46
2022-12-08T20:03:55.202Z,99680.77
2022-12-08T20:06:31.304Z,99683.77
2022-12-08T20:09:06.583Z,99684.75
2022-12-08T20:11:44.915Z,99686.36
2022-12-08T20:14:18.601Z,99685.17
2022-12-08T20:16:57.986Z,99688.46
2022-12-08T20:19:33.409Z,99685.20
2022-12-08T20:22:08.444Z,99689.55
2022-12-08T20:24:42.830Z,99690.94
2022-12-08T20:27:17.675Z,99692.00
2022-12-08T20:29:51.556Z,99692.58
2022-12-08T20:32:25.997Z,99694.55
2022-12-08T20:34:59.484Z,99685.60
2022-12-08T20:37:36.296Z,99682.13
2022-12-08T20:40:13.390Z,99689.89
2022-12-08T20:42:50.664Z,99687.86
2022-12-08T20:45:25.858Z,99688.06
2022-12-08T20:48:01.320Z,99694.36
2022-12-08T20:50:35.268Z,99692.06
2022-12-08T20:53:13.215Z,99697.86
2022-12-08T20:55:46.557Z,99693.40
2022-12-08T20:58:22.917Z,99696.34
2022-12-08T21:00:55.434Z,99698.48
2022-12-08T21:03:28.469Z,99694.31
2022-12-08T21:06:03.210Z,99693.81
2022-12-08T21:08:36.915Z,99695.37
2022-12-08T21:11:09.807Z,99689.38
2022-12-08T21:13:44.343Z,99687.85
2022-12-08T21:16:17.288Z,99688.92
2022-12-08T21:18:49.482Z,99685.65
2022-12-08T21:21:22.013Z,99691.71
2022-12-08T21:23:53.943Z,99692.25
2022-12-08T21:26:26.504Z,99690.35
2022-12-08T21:28:59.369Z,99691.66
2022-12-08T21:31:32.557Z,99692.17
2022-12-08T21:34:05.292Z,99696.06
2022-12-08T21:36:37.317Z,99695.35
2022-12-08T21:39:13.411Z,99695.14
2022-12-08T21:42:03.514Z,99697.16
2022-12-08T21:44:36.301Z,99696.66
2022-12-08T21:47:08.563Z,99691.80
2022-12-08T21:49:40.827Z,99688.29
2022-12-08T21:52:13.312Z,99685.77
2022-12-08T21:54:45.529Z,99685.83
2022-12-08T21:57:17.666Z,99684.73
2022-12-08T21:59:49.419Z,99683.08
2022-12-08T22:02:22.775Z,99685.27
2022-12-08T22:04:56.075Z,99684.63
2022-12-08T22:07:28.296Z,99684.23
2022-12-08T22:10:00.008Z,99681.17
2022-12-08T22:12:32.054Z,99677.90
2022-12-08T22:15:06.059Z,99675.11
2022-12-08T22:17:39.877Z,99678.23
2022-12-08T22:20:13.369Z,99675.14
2022-12-08T22:22:46.195Z,99678.31
2022-12-08T22:25:18.931Z,99674.61
2022-12-08T22:27:51.282Z,99678.83
2022-12-08T22:30:23.324Z,99678.29
2022-12-08T22:32:55.958Z,99673.38
2022-12-08T22:35:28.106Z,99671.52
2022-12-08T22:38:00.029Z,99668.01
2022-12-08T22:40:32.344Z,99671.00
2022-12-08T22:43:03.989Z,99669.81
2022-12-08T22:45:35.847Z,99668.95
2022-12-08T22:48:08.421Z,99670.21
2022-12-08T22:50:40.709Z,99673.39
2022-12-08T22:53:14.198Z,99673.24
2022-12-08T22:55:46.953Z,99672.48
2022-12-08T22:58:19.160Z,99671.65
2022-12-08T23:00:51.476Z,99674.20
2022-12-08T23:03:23.744Z,99673.81
2022-12-08T23:05:56.239Z,99674.98
2022-12-08T23:08:28.716Z,99673.54
2022-12-08T23:11:01.094Z,99671.20
2022-12-08T23:13:32.892Z,99672.09
2022-12-08T23:16:05.387Z,99680.71
2022-12-08T23:18:38.378Z,99679.11
2022-12-08T23:21:12.614Z,99680.03
2022-12-08T23:23:44.485Z,99678.73
2022-12-08T23:26:19.945Z,99674.83
2022-12-08T23:28:51.993Z,99675.02
2022-12-08T23:31:24.254Z,99676.96
2022-12-08T23:33:56.557Z,99680.17
2022-12-08T23:36:28.757Z,99681.15
2022-12-08T23:39:00.360Z,99681.59
2022-12-08T23:41:32.297Z,99684.95
2022-12-08T23:44:04.130Z,99688.64
2022-12-08T23:46:36.231Z,99689.77
2022-12-08T23:49:08.142Z,99686.53
2022-12-08T23:51:40.416Z,99687.08
2022-12-08T23:54:12.556Z,99686.23
2022-12-08T23:56:44.551Z,99682.67
2022-12-08T23:59:16.669Z,99683.35
